Time;durP1;ratioP1;P1;durP2;ratioP2;P2;SDS_P1;SDS_P2;PMS_P1;PMS_P2;Temp;Humidity;BMP_temperature;BMP_pressure;BME280_temperature;BME280_humidity;BME280_pressure;Samples;Min_cycle;Max_cycle;Signal;HPM_P1;HPM_P2
2021/05/13 00:02:17;;;;;;;1.38;0.50;;;;;;;12.37;66.18;99302.31;6194401;23;20058;-77
2021/05/13 00:04:44;;;;;;;1.10;0.73;;;;;;;12.37;65.87;99305.06;6219335;23;20009;-74
2021/05/13 00:07:27;;;;;;;1.35;0.50;;;;;;;12.38;66.10;99306.69;6194876;23;20009;-75
2021/05/13 00:10:31;;;;;;;0.30;0.20;;;;;;;12.37;65.82;99304.28;6219826;23;20060;-76
2021/05/13 00:13:03;;;;;;;2.15;0.90;;;;;;;12.35;65.85;99295.53;6219225;23;20031;-76
2021/05/13 00:15:46;;;;;;;1.30;0.60;;;;;;;12.29;66.11;99291.25;6190145;23;20490;-76
2021/05/13 00:18:14;;;;;;;3.60;0.80;;;;;;;12.24;65.92;99273.00;6187968;23;20004;-73
2021/05/13 00:20:54;;;;;;;2.90;0.47;;;;;;;12.43;66.06;99294.00;6215307;23;20133;-77
2021/05/13 00:23:37;;;;;;;2.30;0.85;;;;;;;12.35;65.73;99268.94;6220503;23;20316;-75
2021/05/13 00:30:29;;;;;;;7.38;0.68;;;;;;;12.29;65.84;99264.66;6130591;23;20041;-76
2021/05/13 00:33:17;;;;;;;5.63;0.63;;;;;;;12.27;65.57;99261.41;6123101;23;19998;-75
2021/05/13 00:36:14;;;;;;;1.13;0.45;;;;;;;12.24;65.81;99264.78;6126968;23;20009;-75
2021/05/13 00:46:49;;;;;;;1.90;0.52;;;;;;;12.37;66.16;99283.13;6124385;23;20429;-75
2021/05/13 01:01:02;;;;;;;;;;;;;;;;;;;;;
2021/05/13 01:03:37;;;;;;;4.07;0.95;;;;;;;12.35;66.10;99266.19;6004969;23;20321;-76
2021/05/13 01:09:56;;;;;;;2.78;1.00;;;;;;;12.30;66.30;99265.50;6017239;23;20048;-77
2021/05/13 01:12:26;;;;;;;0.82;0.40;;;;;;;12.10;66.27;99239.31;5969967;23;20007;-77
2021/05/13 01:15:36;;;;;;;;;;;;;;;;;;;;;
2021/05/13 01:21:08;;;;;;;1.38;0.80;;;;;;;12.24;66.58;99259.28;6209606;23;20013;-79
2021/05/13 01:24:20;;;;;;;2.10;0.52;;;;;;;12.15;66.58;99233.69;6169358;23;20040;-78
2021/05/13 01:26:49;;;;;;;0.50;0.50;;;;;;;12.04;66.72;99225.69;6222128;23;20007;-78
2021/05/13 01:29:49;;;;;;;1.10;0.80;;;;;;;12.23;66.81;99249.44;6223207;23;20000;-78
2021/05/13 01:32:26;;;;;;;;;;;;;;;;;;;;;
2021/05/13 01:34:52;;;;;;;7.63;0.80;;;;;;;12.31;66.98;99251.47;6222553;23;20466;-78
2021/05/13 01:38:49;;;;;;;;;;;;;;;;;;;;;
2021/05/13 01:41:25;;;;;;;0.30;0.30;;;;;;;12.15;66.82;99215.34;6192043;23;20036;-78
2021/05/13 01:48:46;;;;;;;;;;;;;;;;;;;;;
2021/05/13 01:51:36;;;;;;;;;;;;;;;;;;;;;
2021/05/13 01:54:15;;;;;;;2.08;0.70;;;;;;;12.23;66.92;99233.00;6179716;23;20037;-74
2021/05/13 01:56:44;;;;;;;0.55;0.50;;;;;;;12.20;67.11;99223.44;6196707;23;20001;-74
2021/05/13 01:59:09;;;;;;;0.50;0.28;;;;;;;12.33;67.02;99243.75;6195440;23;20079;-75
2021/05/13 02:01:38;;;;;;;1.08;0.35;;;;;;;12.14;66.75;99212.91;6197659;23;20012;-76
2021/05/13 02:08:00;;;;;;;0.88;0.75;;;;;;;12.28;66.63;99230.16;6186621;23;20073;-77
2021/05/13 02:10:26;;;;;;;0.68;0.30;;;;;;;12.09;67.13;99196.56;6194225;23;20091;-76
2021/05/13 02:13:02;;;;;;;;;;;;;;;;;;;;;
2021/05/13 02:15:30;;;;;;;1.17;0.60;;;;;;;12.26;67.27;99228.84;6222072;23;20027;-74
2021/05/13 02:18:06;;;;;;;1.50;0.77;;;;;;;12.27;67.23;99219.50;6195616;23;20009;-76
2021/05/13 02:20:34;;;;;;;1.00;0.40;;;;;;;12.16;67.01;99207.94;6197288;23;20001;-76
2021/05/13 02:23:19;;;;;;;;;;;;;;;;;;;;;
2021/05/13 02:25:50;;;;;;;0.70;0.43;;;;;;;12.07;67.52;99185.13;6224420;23;20016;-76
2021/05/13 02:28:15;;;;;;;1.13;0.50;;;;;;;12.08;67.08;99186.75;6198450;23;20075;-77
2021/05/13 02:30:41;;;;;;;3.28;0.50;;;;;;;12.29;67.61;99214.50;6171544;23;20008;-77
2021/05/13 02:33:06;;;;;;;4.45;0.70;;;;;;;12.20;67.42;99203.47;6224589;23;20000;-77
2021/05/13 02:35:32;;;;;;;0.32;0.32;;;;;;;12.14;67.59;99185.50;6196437;23;20068;-77
2021/05/13 02:37:59;;;;;;;4.35;0.80;;;;;;;12.11;67.89;99180.66;6224319;23;20008;-76
2021/05/13 02:40:52;;;;;;;1.20;0.40;;;;;;;12.26;67.38;99204.97;6151762;23;20018;-77
2021/05/13 02:43:18;;;;;;;1.20;0.43;;;;;;;12.24;67.26;99201.75;6162980;23;20441;-77
2021/05/13 03:56:22;;;;;;;;;;;;;;;;;;;;;
2021/05/13 04:20:47;;;;;;;;;;;;;;;;;;;;;
2021/05/13 04:44:10;;;;;;;2.55;1.20;;;;;;;12.18;70.07;99154.44;5904727;24;20364;-73
2021/05/13 04:46:43;;;;;;;5.20;1.60;;;;;;;12.10;69.45;99146.13;5995630;23;20007;-74
2021/05/13 04:49:21;;;;;;;1.85;1.30;;;;;;;12.09;69.65;99144.50;6104464;23;20013;-73
2021/05/13 04:52:19;;;;;;;;;;;;;;;;;;;;;
2021/05/13 04:55:03;;;;;;;;;;;;;;;;;;;;;
2021/05/13 04:57:38;;;;;;;1.33;1.08;;;;;;;12.16;69.67;99155.88;6220574;23;20071;-74
2021/05/13 05:00:41;;;;;;;;;;;;;;;;;;;;;
2021/05/13 05:03:43;;;;;;;;;;;;;;;;;;;;;
2021/05/13 05:06:15;;;;;;;;;;;;;;;;;;;;;
2021/05/13 05:09:06;;;;;;;2.50;1.92;;;;;;;12.02;69.68;99156.69;6245619;23;21065;-74
2021/05/13 05:12:05;;;;;;;2.35;1.27;;;;;;;11.95;69.67;99142.59;6224765;23;20010;-72
2021/05/13 05:15:00;;;;;;;;;;;;;;;;;;;;;
2021/05/13 05:17:29;;;;;;;3.50;1.83;;;;;;;11.91;70.34;99155.25;6247985;23;20356;-73
2021/05/13 05:27:51;;;;;;;6.68;0.45;;;;;;;11.99;70.59;99162.78;6099169;23;20041;-76
2021/05/13 05:38:09;;;;;;;1.55;0.93;;;;;;;12.03;69.97;99144.63;6036782;23;20022;-76
2021/05/13 05:45:26;;;;;;;;;;;;;;;;;;;;;
2021/05/13 05:48:22;;;;;;;0.70;0.47;;;;;;;11.89;69.88;99146.53;6037988;23;20083;-76
2021/05/13 05:50:50;;;;;;;1.80;0.52;;;;;;;12.01;69.97;99171.50;6016800;23;20008;-73
2021/05/13 05:53:15;;;;;;;0.88;0.77;;;;;;;11.94;70.37;99162.88;6147337;23;20438;-73
2021/05/13 05:55:46;;;;;;;1.40;0.68;;;;;;;11.92;70.52;99162.38;6199549;23;20004;-74
2021/05/13 05:58:11;;;;;;;1.42;0.70;;;;;;;11.99;69.94;99168.28;6224938;23;20000;-75
2021/05/13 06:00:37;;;;;;;0.75;0.75;;;;;;;11.88;70.49;99144.91;6199521;23;20010;-77
2021/05/13 06:03:02;;;;;;;1.42;0.70;;;;;;;11.99;70.19;99151.84;6251252;23;20004;-78
2021/05/13 06:05:28;;;;;;;8.45;0.80;;;;;;;11.97;69.94;99153.25;6200958;23;20039;-76
2021/05/13 06:07:56;;;;;;;3.25;1.08;;;;;;;12.04;69.89;99157.19;6227042;23;20004;-77
2021/05/13 06:10:22;;;;;;;2.05;0.65;;;;;;;11.99;70.25;99140.88;6223718;23;20027;-76
2021/05/13 06:12:48;;;;;;;2.75;0.47;;;;;;;12.11;69.78;99145.81;6226185;23;20000;-76
2021/05/13 06:15:16;;;;;;;0.70;0.68;;;;;;;12.07;69.83;99142.06;6251821;23;20004;-74
2021/05/13 06:17:41;;;;;;;0.98;0.30;;;;;;;12.20;69.47;99151.41;6244237;23;20080;-75
2021/05/13 06:20:17;;;;;;;0.73;0.28;;;;;;;12.16;69.61;99142.16;6252148;23;20107;-74
2021/05/13 06:22:43;;;;;;;1.00;0.30;;;;;;;12.30;69.07;99162.13;6224169;23;20004;-75
2021/05/13 06:25:08;;;;;;;0.70;0.30;;;;;;;12.38;69.39;99158.66;6250600;23;20004;-74
2021/05/13 06:27:34;;;;;;;0.73;0.20;;;;;;;12.48;69.13;99157.59;6254014;23;20004;-73
2021/05/13 06:29:59;;;;;;;0.57;0.20;;;;;;;12.63;69.18;99161.94;6252103;23;20004;-73
2021/05/13 06:32:26;;;;;;;0.25;0.25;;;;;;;12.81;69.10;99159.31;6256753;23;19996;-76
2021/05/13 06:34:51;;;;;;;1.55;0.30;;;;;;;12.94;69.48;99152.97;6205451;23;20008;-77
2021/05/13 06:37:17;;;;;;;1.27;0.20;;;;;;;13.16;68.53;99162.31;6204005;23;20004;-75
2021/05/13 06:39:43;;;;;;;0.47;0.30;;;;;;;13.26;68.41;99159.28;6238796;22;20435;-77
2021/05/13 06:42:09;;;;;;;0.75;0.20;;;;;;;13.21;68.16;99159.41;6229847;22;20004;-77
2021/05/13 06:44:34;;;;;;;0.15;0.13;;;;;;;13.23;68.39;99168.97;6284706;22;20011;-74
2021/05/13 06:47:08;;;;;;;0.90;0.20;;;;;;;13.17;67.99;99153.75;6258323;22;20003;-78
2021/05/13 06:49:34;;;;;;;0.38;0.10;;;;;;;13.34;68.14;99166.78;6261960;22;20011;-76
2021/05/13 06:52:00;;;;;;;0.13;0.13;;;;;;;13.39;67.74;99169.41;6290799;22;20002;-77
2021/05/13 06:54:25;;;;;;;0.20;0.10;;;;;;;13.32;67.39;99168.19;6265593;22;20004;-77
2021/05/13 06:56:53;;;;;;;2.38;0.43;;;;;;;13.23;66.80;99159.91;6239588;22;20060;-77
2021/05/13 06:59:19;;;;;;;0.38;0.30;;;;;;;13.19;66.76;99164.41;6267062;22;20003;-79
2021/05/13 07:01:44;;;;;;;0.40;0.10;;;;;;;13.17;67.23;99177.63;6238697;22;20387;-77
2021/05/13 07:04:10;;;;;;;0.20;0.20;;;;;;;13.15;67.26;99171.66;6292483;22;20007;-78
2021/05/13 07:06:38;;;;;;;1.17;0.22;;;;;;;13.16;66.77;99176.03;6264509;22;20058;-79
2021/05/13 07:09:05;;;;;;;0.35;0.30;;;;;;;13.13;66.68;99180.19;6265193;22;20007;-79
2021/05/13 07:11:39;;;;;;;1.08;0.15;;;;;;;13.06;66.70;99175.13;6239612;22;20095;-80
2021/05/13 07:14:04;;;;;;;0.35;0.30;;;;;;;13.14;66.81;99191.97;6264757;22;20011;-78
2021/05/13 07:16:30;;;;;;;0.22;0.08;;;;;;;13.19;67.17;99197.34;6266795;22;20000;-78
2021/05/13 07:18:58;;;;;;;1.33;0.50;;;;;;;13.09;67.05;99182.75;6239759;22;20052;-77
2021/05/13 07:21:45;;;;;;;0.50;0.10;;;;;;;13.18;67.00;99192.97;6260838;22;19999;-77
2021/05/13 07:24:20;;;;;;;;;;;;;;;;;;;;;
2021/05/13 07:26:46;;;;;;;0.10;0.10;;;;;;;13.31;66.93;99199.53;6290442;22;20069;-77
2021/05/13 07:29:13;;;;;;;1.70;0.20;;;;;;;13.39;66.91;99201.50;6293059;22;20004;-76
2021/05/13 07:31:38;;;;;;;1.75;0.47;;;;;;;13.24;66.44;99167.84;6263195;22;19996;-78
2021/05/13 07:34:32;;;;;;;2.13;0.22;;;;;;;13.48;66.36;99199.66;6264050;22;20008;-77
2021/05/13 07:36:57;;;;;;;0.30;0.30;;;;;;;13.35;65.98;99178.59;6253184;22;20326;-79
2021/05/13 07:39:23;;;;;;;0.30;0.20;;;;;;;13.47;66.60;99198.00;6264044;22;20015;-80
2021/05/13 07:41:51;;;;;;;0.90;0.20;;;;;;;13.39;65.88;99191.34;6290964;22;20015;-79
2021/05/13 07:44:17;;;;;;;0.65;0.40;;;;;;;13.42;65.62;99187.97;6296019;22;20090;-80
2021/05/13 07:47:04;;;;;;;0.47;0.22;;;;;;;13.55;66.05;99199.19;6265426;22;20047;-79
2021/05/13 07:49:38;;;;;;;1.33;0.50;;;;;;;13.65;66.44;99193.41;6294912;22;20051;-79
2021/05/13 07:52:16;;;;;;;;;;;;;;;;;;;;;
2021/05/13 07:54:43;;;;;;;0.35;0.30;;;;;;;14.28;65.99;99201.53;6294990;22;20010;-78
2021/05/13 07:57:18;;;;;;;;;;;;;;;;;;;;;
2021/05/13 07:59:46;;;;;;;1.58;0.82;;;;;;;14.74;64.16;99205.66;6288055;22;20024;-79
2021/05/13 08:02:12;;;;;;;1.15;0.50;;;;;;;14.80;63.58;99196.09;6236562;22;20043;-78
2021/05/13 08:05:09;;;;;;;2.47;0.52;;;;;;;14.92;63.36;99189.97;6261460;22;20006;-82
2021/05/13 08:07:44;;;;;;;;;;;;;;;;;;;;;
2021/05/13 08:10:19;;;;;;;1.17;0.60;;;;;;;14.95;61.86;99205.00;6288626;22;20034;-80
2021/05/13 08:13:22;;;;;;;1.17;0.13;;;;;;;14.81;61.03;99222.50;6264764;22;19996;-81
2021/05/13 08:19:01;;;;;;;;;;;;;;;;;;;;;
2021/05/13 08:21:44;;;;;;;;;;;;;;;;;;;;;
2021/05/13 08:24:10;;;;;;;0.95;0.22;;;;;;;14.27;62.72;99213.66;6285911;22;20023;-81
2021/05/13 08:26:36;;;;;;;0.75;0.35;;;;;;;14.19;62.84;99230.94;6289583;22;20014;-80
2021/05/13 08:29:04;;;;;;;3.30;0.47;;;;;;;13.95;62.57;99201.94;6290078;22;20002;-80
2021/05/13 08:31:40;;;;;;;0.95;0.47;;;;;;;13.96;62.57;99215.34;6262192;22;20039;-80
2021/05/13 08:34:06;;;;;;;0.85;0.25;;;;;;;14.05;63.51;99229.13;6264101;22;20003;-81
2021/05/13 08:36:36;;;;;;;0.68;0.28;;;;;;;14.03;63.24;99214.06;6257498;22;20000;-75
2021/05/13 08:39:21;;;;;;;;;;;;;;;;;;;;;
2021/05/13 08:41:46;;;;;;;1.23;0.20;;;;;;;14.40;62.56;99236.66;6277292;22;20043;-74
2021/05/13 08:44:12;;;;;;;0.30;0.20;;;;;;;14.55;62.45;99230.69;6285577;22;20014;-75
2021/05/13 08:46:39;;;;;;;0.28;0.20;;;;;;;14.82;62.32;99232.38;6258932;22;20034;-80
2021/05/13 08:49:05;;;;;;;2.60;0.20;;;;;;;14.91;62.15;99232.38;6280411;22;20010;-71
2021/05/13 08:51:32;;;;;;;0.30;0.20;;;;;;;14.94;61.76;99233.69;6284907;22;20000;-74
2021/05/13 08:53:59;;;;;;;0.10;0.10;;;;;;;14.96;61.93;99234.16;6280615;22;20014;-74
2021/05/13 08:56:27;;;;;;;0.30;0.10;;;;;;;14.98;61.77;99238.19;6258026;22;20034;-72
2021/05/13 08:58:53;;;;;;;0.30;0.10;;;;;;;14.99;61.17;99239.00;6282506;22;20008;-74
2021/05/13 09:01:21;;;;;;;0.73;0.10;;;;;;;14.93;60.92;99234.81;6273751;22;20058;-73
2021/05/13 09:03:48;;;;;;;0.30;0.10;;;;;;;14.93;60.77;99241.09;6277380;22;20373;-74
2021/05/13 09:06:50;;;;;;;0.35;0.15;;;;;;;14.96;61.38;99240.44;6278306;22;20042;-74
2021/05/13 09:09:17;;;;;;;0.10;0.10;;;;;;;14.89;61.00;99239.31;6279591;22;20121;-72
2021/05/13 09:11:50;;;;;;;0.35;0.10;;;;;;;14.99;62.13;99250.00;6281224;22;20054;-74
2021/05/13 09:14:23;;;;;;;0.30;0.03;;;;;;;15.11;61.34;99238.34;6281478;22;20073;-74
2021/05/13 09:16:49;;;;;;;0.73;0.10;;;;;;;15.21;61.69;99237.22;6281036;22;20000;-72
2021/05/13 09:19:19;;;;;;;0.63;0.10;;;;;;;15.18;61.29;99220.19;6278623;22;20067;-73
2021/05/13 09:22:07;;;;;;;5.28;0.35;;;;;;;15.39;61.11;99230.53;6279969;22;20045;-74
2021/05/13 09:25:00;;;;;;;0.20;0.10;;;;;;;15.60;61.50;99235.34;6281587;22;20004;-72
2021/05/13 09:27:34;;;;;;;0.80;0.10;;;;;;;15.76;61.07;99241.94;6278363;22;20011;-75
2021/05/13 09:30:23;;;;;;;0.20;0.10;;;;;;;15.67;60.50;99230.94;6259923;22;20003;-74
2021/05/13 09:32:53;;;;;;;0.28;0.10;;;;;;;15.79;60.80;99244.06;6266324;22;20007;-74
2021/05/13 09:35:26;;;;;;;0.00;0.00;;;;;;;15.86;60.42;99246.31;6287958;22;20007;-74
2021/05/13 09:38:09;;;;;;;0.40;0.10;;;;;;;15.88;60.16;99231.03;6264120;22;20004;-72
2021/05/13 09:40:52;;;;;;;0.05;0.00;;;;;;;15.96;60.20;99231.34;6261892;22;20023;-72
2021/05/13 09:43:29;;;;;;;0.03;0.03;;;;;;;16.10;60.32;99237.44;6261860;22;20020;-74
2021/05/13 09:45:56;;;;;;;0.15;0.10;;;;;;;16.22;60.11;99234.78;6288620;22;20009;-75
2021/05/13 09:48:42;;;;;;;0.17;0.10;;;;;;;16.40;59.70;99223.66;6289114;22;20323;-74
2021/05/13 09:51:34;;;;;;;0.20;0.10;;;;;;;16.47;59.76;99232.22;6284411;22;20003;-74
2021/05/13 09:54:20;;;;;;;0.68;0.13;;;;;;;16.49;59.43;99229.91;6280453;22;20004;-73
2021/05/13 09:56:50;;;;;;;0.45;0.10;;;;;;;16.49;58.92;99232.69;6290190;22;20034;-74
2021/05/13 09:59:24;;;;;;;0.20;0.13;;;;;;;16.42;58.98;99223.31;6286324;22;20031;-73
2021/05/13 10:01:52;;;;;;;0.20;0.10;;;;;;;16.40;58.77;99235.50;6286984;22;20076;-73
2021/05/13 10:04:18;;;;;;;0.10;0.05;;;;;;;16.39;59.19;99231.09;6286116;22;20035;-75
2021/05/13 10:06:44;;;;;;;0.10;0.00;;;;;;;16.42;58.98;99232.41;6259983;22;20034;-72
2021/05/13 10:09:13;;;;;;;0.10;0.10;;;;;;;16.60;59.11;99237.81;6262395;22;20008;-74
2021/05/13 10:11:39;;;;;;;0.00;0.00;;;;;;;16.69;58.91;99235.78;6294650;22;20000;-73
2021/05/13 10:14:06;;;;;;;2.00;0.28;;;;;;;16.79;58.90;99229.84;6268195;22;20038;-73
2021/05/13 10:16:40;;;;;;;0.30;0.10;;;;;;;16.92;58.67;99234.34;6269499;22;20018;-73
2021/05/13 10:19:13;;;;;;;0.25;0.05;;;;;;;16.98;58.26;99225.84;6262294;22;20003;-73
2021/05/13 10:21:45;;;;;;;0.13;0.00;;;;;;;17.04;57.91;99235.53;6258606;22;20430;-74
2021/05/13 10:24:14;;;;;;;0.20;0.10;;;;;;;17.00;57.87;99242.91;6287672;22;20013;-74
2021/05/13 10:26:43;;;;;;;0.10;0.10;;;;;;;16.79;57.61;99243.66;6259183;22;20028;-74
2021/05/13 10:29:25;;;;;;;0.30;0.10;;;;;;;16.62;57.72;99241.03;6285045;22;20588;-73
2021/05/13 10:31:59;;;;;;;0.22;0.10;;;;;;;16.43;57.81;99236.78;6288182;22;20008;-73
2021/05/13 10:34:40;;;;;;;0.10;0.00;;;;;;;16.30;57.81;99235.09;6282928;22;20014;-75
2021/05/13 10:37:09;;;;;;;0.30;0.10;;;;;;;16.08;58.01;99234.22;6259875;22;20010;-74
2021/05/13 10:39:35;;;;;;;0.22;0.10;;;;;;;15.94;58.62;99233.63;6286309;22;19996;-74
2021/05/13 10:42:30;;;;;;;0.60;0.03;;;;;;;15.88;59.17;99241.28;6234991;22;20015;-75
2021/05/13 10:44:56;;;;;;;0.10;0.00;;;;;;;15.85;58.92;99237.22;6287335;22;20011;-74
2021/05/13 10:47:27;;;;;;;0.13;0.10;;;;;;;15.96;59.67;99242.38;6258923;22;20316;-75
2021/05/13 10:49:53;;;;;;;0.10;0.00;;;;;;;16.25;59.67;99240.78;6280759;22;20418;-74
2021/05/13 10:52:39;;;;;;;0.22;0.10;;;;;;;16.79;59.15;99251.94;6260334;22;19996;-74
2021/05/13 10:55:08;;;;;;;0.30;0.00;;;;;;;17.22;58.09;99245.28;6258640;22;20085;-75
2021/05/13 10:57:53;;;;;;;0.30;0.25;;;;;;;17.61;57.65;99232.06;6259595;22;20085;-74
2021/05/13 11:00:18;;;;;;;0.30;0.10;;;;;;;17.84;55.60;99244.63;6259613;22;20012;-75
2021/05/13 11:02:46;;;;;;;0.35;0.00;;;;;;;17.88;55.02;99243.59;6257866;22;20015;-75
2021/05/13 11:05:30;;;;;;;0.98;0.10;;;;;;;17.99;54.73;99248.72;6287044;22;20004;-74
2021/05/13 11:08:03;;;;;;;0.10;0.10;;;;;;;17.80;54.01;99241.75;6287660;22;20010;-74
2021/05/13 11:10:47;;;;;;;0.00;0.00;;;;;;;17.65;53.43;99247.94;6259270;22;20308;-74
2021/05/13 11:13:13;;;;;;;0.30;0.17;;;;;;;17.30;54.27;99240.00;6287030;22;20010;-74
2021/05/13 11:15:42;;;;;;;0.38;0.10;;;;;;;17.11;54.23;99246.84;6284902;22;20028;-75
2021/05/13 11:18:11;;;;;;;0.25;0.10;;;;;;;16.91;53.99;99249.28;6258733;22;20008;-72
2021/05/13 11:20:45;;;;;;;0.10;0.10;;;;;;;16.72;54.12;99248.94;6259650;22;20102;-72
2021/05/13 11:23:19;;;;;;;0.75;0.15;;;;;;;16.58;54.57;99252.75;6259151;22;20011;-74
2021/05/13 11:25:59;;;;;;;0.63;0.20;;;;;;;16.47;54.87;99248.78;6260572;22;20000;-74
2021/05/13 11:28:51;;;;;;;0.10;0.00;;;;;;;16.39;55.04;99249.63;6286413;22;19999;-73
2021/05/13 11:31:20;;;;;;;0.40;0.10;;;;;;;16.31;54.68;99250.47;6259168;22;20004;-73
2021/05/13 11:33:54;;;;;;;0.30;0.15;;;;;;;16.32;55.29;99244.63;6260185;22;20007;-74
2021/05/13 11:36:27;;;;;;;0.03;0.00;;;;;;;16.61;55.65;99247.72;6256919;22;20007;-75
2021/05/13 11:38:56;;;;;;;0.15;0.00;;;;;;;17.03;55.54;99256.03;6286750;22;20303;-75
2021/05/13 11:41:22;;;;;;;0.57;0.00;;;;;;;17.39;55.50;99251.78;6284658;22;20026;-74
2021/05/13 11:43:48;;;;;;;0.35;0.10;;;;;;;17.78;54.67;99257.88;6285888;22;20014;-72
2021/05/13 11:46:22;;;;;;;0.30;0.20;;;;;;;18.16;54.19;99262.31;6258060;22;19999;-74
2021/05/13 11:48:50;;;;;;;0.88;0.13;;;;;;;18.42;52.94;99264.75;6284848;22;20011;-72
2021/05/13 11:51:30;;;;;;;0.17;0.10;;;;;;;18.79;52.62;99261.94;6259559;22;20045;-74
2021/05/13 11:53:57;;;;;;;0.10;0.10;;;;;;;19.08;51.24;99250.91;6285745;22;20495;-73
2021/05/13 11:56:25;;;;;;;0.40;0.10;;;;;;;19.51;51.96;99264.00;6258410;22;20011;-73
2021/05/13 11:58:52;;;;;;;0.03;0.03;;;;;;;19.90;51.17;99251.53;6285834;22;19995;-73
2021/05/13 12:01:31;;;;;;;0.10;0.00;;;;;;;20.56;51.04;99259.09;6286941;22;20008;-74
2021/05/13 12:04:03;;;;;;;0.43;0.00;;;;;;;21.10;50.20;99259.50;6287812;22;20007;-75
2021/05/13 12:06:48;;;;;;;1.13;0.40;;;;;;;21.78;48.58;99269.16;6285580;22;20000;-74
2021/05/13 12:09:15;;;;;;;0.30;0.13;;;;;;;22.47;46.90;99256.41;6286917;22;20314;-72
2021/05/13 12:11:41;;;;;;;0.00;0.00;;;;;;;22.97;45.59;99261.88;6283524;22;20056;-73
2021/05/13 12:14:09;;;;;;;0.00;0.00;;;;;;;23.15;44.21;99270.50;6285306;22;20025;-73
2021/05/13 12:16:35;;;;;;;0.43;0.10;;;;;;;23.05;43.03;99274.72;6288633;22;20004;-73
2021/05/13 12:19:05;;;;;;;0.15;0.10;;;;;;;23.41;42.92;99272.41;6284465;22;20006;-74
2021/05/13 12:21:31;;;;;;;0.50;0.00;;;;;;;24.96;43.52;99272.94;6284714;22;20374;-73
2021/05/13 12:23:57;;;;;;;0.00;0.00;;;;;;;26.37;39.94;99280.50;6259050;22;20003;-73
2021/05/13 12:26:25;;;;;;;0.28;0.10;;;;;;;27.05;39.35;99279.56;6235614;22;20007;-73
2021/05/13 12:28:51;;;;;;;0.10;0.10;;;;;;;27.09;36.43;99268.34;6255103;22;20000;-73
2021/05/13 12:31:36;;;;;;;0.20;0.10;;;;;;;28.23;36.38;99287.75;6287390;22;20007;-74
2021/05/13 12:34:06;;;;;;;0.38;0.13;;;;;;;28.26;32.18;99276.50;6287098;22;20086;-74
2021/05/13 12:36:32;;;;;;;0.00;0.00;;;;;;;28.06;33.20;99289.50;6257230;22;20004;-75
2021/05/13 12:38:58;;;;;;;0.10;0.10;;;;;;;27.90;32.40;99293.59;6284126;22;20006;-74
2021/05/13 12:41:26;;;;;;;0.00;0.00;;;;;;;28.69;33.24;99292.19;6286100;22;20018;-74
2021/05/13 12:44:08;;;;;;;0.10;0.00;;;;;;;30.50;32.24;99291.38;6261366;22;20004;-73
2021/05/13 12:46:46;;;;;;;0.28;0.10;;;;;;;31.93;30.93;99294.59;6286518;22;20004;-74
2021/05/13 12:49:23;;;;;;;0.50;0.10;;;;;;;32.68;27.73;99291.94;6259333;22;20030;-75
2021/05/13 12:52:04;;;;;;;0.10;0.00;;;;;;;31.63;25.17;99285.19;6286173;22;20000;-74
2021/05/13 12:54:31;;;;;;;0.10;0.10;;;;;;;30.09;24.97;99284.00;6284741;22;20003;-74
2021/05/13 12:57:19;;;;;;;0.30;0.10;;;;;;;28.57;25.50;99282.25;6261136;22;20015;-73
2021/05/13 12:59:55;;;;;;;0.35;0.08;;;;;;;27.33;27.17;99287.09;6257772;22;20327;-73
2021/05/13 13:02:26;;;;;;;0.47;0.10;;;;;;;26.64;28.44;99282.84;6288264;22;20094;-74
2021/05/13 13:04:53;;;;;;;0.10;0.03;;;;;;;26.22;28.85;99282.47;6285151;22;20003;-73
2021/05/13 13:07:43;;;;;;;0.47;0.08;;;;;;;25.80;29.56;99281.22;6286194;22;20445;-74
2021/05/13 13:10:20;;;;;;;0.03;0.00;;;;;;;25.31;29.98;99282.69;6260316;22;20018;-74
2021/05/13 13:12:46;;;;;;;0.17;0.10;;;;;;;25.03;30.16;99278.56;6257712;22;20380;-73
2021/05/13 13:15:29;;;;;;;0.08;0.05;;;;;;;24.64;30.34;99273.53;6287023;22;20028;-74
2021/05/13 13:18:12;;;;;;;0.32;0.03;;;;;;;24.28;31.21;99278.84;6288351;22;20473;-74
2021/05/13 13:20:39;;;;;;;0.10;0.10;;;;;;;23.97;30.46;99275.38;6283964;22;20476;-73
2021/05/13 13:23:25;;;;;;;0.45;0.10;;;;;;;23.64;31.68;99279.81;6286706;22;20046;-74
2021/05/13 13:25:52;;;;;;;0.10;0.00;;;;;;;23.25;32.10;99269.03;6286946;22;20414;-73
2021/05/13 13:28:20;;;;;;;0.00;0.00;;;;;;;23.03;32.76;99274.31;6261243;22;20027;-75
2021/05/13 13:30:49;;;;;;;0.28;0.28;;;;;;;22.85;33.55;99282.41;6286857;22;20000;-73
2021/05/13 13:33:23;;;;;;;3.10;0.00;;;;;;;22.78;33.49;99285.91;6259650;22;20003;-73
2021/05/13 13:35:51;;;;;;;0.20;0.10;;;;;;;22.77;34.00;99284.31;6286197;22;20010;-74
2021/05/13 13:38:17;;;;;;;0.10;0.00;;;;;;;22.89;33.64;99280.47;6254085;22;20012;-72
2021/05/13 13:40:46;;;;;;;1.38;0.20;;;;;;;22.68;32.81;99286.56;6260187;22;20000;-74
2021/05/13 13:43:18;;;;;;;0.75;0.22;;;;;;;22.34;33.20;99289.25;6284279;22;20011;-73
2021/05/13 13:45:44;;;;;;;0.60;0.20;;;;;;;22.26;33.77;99281.91;6286207;22;20086;-74
2021/05/13 13:48:12;;;;;;;0.22;0.10;;;;;;;22.37;34.20;99293.25;6285769;22;20010;-74
2021/05/13 13:50:43;;;;;;;0.10;0.00;;;;;;;22.59;34.73;99281.25;6284058;22;20014;-74
2021/05/13 13:53:10;;;;;;;0.17;0.10;;;;;;;22.80;33.82;99282.75;6284412;22;20000;-74
2021/05/13 13:55:37;;;;;;;0.05;0.00;;;;;;;22.77;34.21;99284.31;6284400;22;20022;-74
2021/05/13 13:58:03;;;;;;;0.15;0.00;;;;;;;22.87;34.45;99291.22;6285793;22;20473;-73
2021/05/13 14:00:28;;;;;;;0.30;0.05;;;;;;;22.94;34.19;99288.53;6280745;22;20010;-74
2021/05/13 14:02:56;;;;;;;0.65;0.10;;;;;;;22.86;33.48;99292.38;6207563;22;20035;-73
2021/05/13 14:05:23;;;;;;;0.17;0.03;;;;;;;23.37;34.26;99288.28;6285866;22;20010;-73
2021/05/13 14:07:49;;;;;;;0.20;0.15;;;;;;;24.91;33.44;99286.09;6286528;22;20008;-73
2021/05/13 14:10:16;;;;;;;0.57;0.10;;;;;;;26.03;33.64;99288.50;6227884;23;20008;-74
2021/05/13 14:12:42;;;;;;;0.03;0.00;;;;;;;27.92;31.92;99293.19;6227009;23;20004;-73
2021/05/13 14:15:09;;;;;;;0.45;0.15;;;;;;;30.10;29.36;99292.03;6204067;23;20281;-74
2021/05/13 14:17:35;;;;;;;0.00;0.00;;;;;;;32.23;28.26;99293.47;6228785;23;20095;-73
2021/05/13 14:20:04;;;;;;;0.20;0.10;;;;;;;33.90;27.06;99298.97;6225222;23;20004;-75
2021/05/13 14:22:29;;;;;;;0.43;0.10;;;;;;;34.09;24.74;99303.59;6228826;23;20426;-71
2021/05/13 14:24:55;;;;;;;0.60;0.10;;;;;;;33.72;24.21;99302.34;6200621;23;20008;-75
2021/05/13 14:27:20;;;;;;;0.30;0.10;;;;;;;34.50;24.75;99305.94;6251792;23;20015;-73
2021/05/13 14:29:46;;;;;;;0.10;0.00;;;;;;;35.06;23.98;99293.03;6226588;23;20019;-73
2021/05/13 14:32:11;;;;;;;0.25;0.10;;;;;;;34.67;22.58;99295.22;6255938;23;20028;-74
2021/05/13 14:34:37;;;;;;;0.03;0.03;;;;;;;34.14;23.07;99298.59;6227613;23;20004;-74
2021/05/13 14:37:04;;;;;;;0.20;0.10;;;;;;;33.78;22.75;99292.06;6228137;23;20008;-74
2021/05/13 14:39:30;;;;;;;0.75;0.10;;;;;;;34.12;21.59;99301.13;6254389;23;20007;-75
2021/05/13 14:41:55;;;;;;;0.60;0.28;;;;;;;34.19;20.98;99298.81;6250146;22;20118;-75
2021/05/13 14:44:20;;;;;;;0.15;0.00;;;;;;;34.14;21.13;99293.75;6254955;23;20008;-73
2021/05/13 14:46:46;;;;;;;0.30;0.10;;;;;;;33.80;21.33;99303.72;6228410;23;20031;-74
2021/05/13 14:49:29;;;;;;;0.15;0.00;;;;;;;34.08;21.23;99293.53;6253613;23;20012;-74
2021/05/13 14:51:55;;;;;;;0.00;0.00;;;;;;;33.10;20.56;99303.31;6228591;23;20461;-74
2021/05/13 14:54:21;;;;;;;0.13;0.10;;;;;;;31.62;21.19;99290.03;6251417;23;20106;-74
2021/05/13 14:57:01;;;;;;;0.15;0.10;;;;;;;30.40;22.30;99290.34;6253841;23;20007;-73
2021/05/13 14:59:27;;;;;;;0.10;0.00;;;;;;;30.01;22.84;99288.97;6202895;23;20397;-73
2021/05/13 15:01:57;;;;;;;0.17;0.00;;;;;;;29.29;22.43;99284.28;6254473;23;20043;-73
2021/05/13 15:04:22;;;;;;;0.20;0.10;;;;;;;28.25;23.33;99285.34;6202528;23;20024;-76
2021/05/13 15:06:48;;;;;;;0.28;0.10;;;;;;;27.36;24.80;99282.69;6253079;23;20004;-78
2021/05/13 15:09:13;;;;;;;0.45;0.20;;;;;;;26.65;24.77;99279.66;6254015;23;20008;-74
2021/05/13 15:11:39;;;;;;;0.00;0.00;;;;;;;26.08;25.48;99279.66;6254623;23;20022;-74
2021/05/13 15:14:05;;;;;;;0.30;0.10;;;;;;;25.69;25.90;99269.22;6252837;23;20031;-75
2021/05/13 15:16:31;;;;;;;0.20;0.10;;;;;;;25.20;26.66;99261.06;6253934;23;20004;-73
2021/05/13 15:18:56;;;;;;;0.10;0.05;;;;;;;25.14;28.08;99273.78;6228344;23;20016;-74
2021/05/13 15:21:22;;;;;;;0.13;0.10;;;;;;;25.79;28.67;99271.22;6258812;23;20008;-74
2021/05/13 15:23:47;;;;;;;0.65;0.10;;;;;;;26.67;27.61;99264.44;6233106;23;20042;-74
2021/05/13 15:26:13;;;;;;;0.10;0.05;;;;;;;26.50;25.67;99271.66;6232274;23;20028;-75
2021/05/13 15:28:40;;;;;;;0.00;0.00;;;;;;;27.06;27.07;99269.13;6232307;23;20437;-74